Time;durP1;ratioP1;P1;durP2;ratioP2;P2;SDS_P1;SDS_P2;PMS_P1;PMS_P2;Temp;Humidity;BMP_temperature;BMP_pressure;BME280_temperature;BME280_humidity;BME280_pressure;Samples;Min_cycle;Max_cycle;Signal;HPM_P1;HPM_P2
2022/06/06 00:00:00;;;;;;;2.23;1.80;;;;;;;;;;5070554;28;20446;-70
2022/06/06 00:02:28;;;;;;;2.60;1.60;;;;;;;;;;5067837;28;20453;-70
2022/06/06 00:04:56;;;;;;;1.83;1.60;;;;;;;;;;5070926;28;20448;-70
2022/06/06 00:07:23;;;;;;;2.13;1.50;;;;;;;;;;5071559;28;20856;-69
2022/06/06 00:09:51;;;;;;;1.87;1.50;;;;;;;;;;5070511;28;20913;-70
2022/06/06 00:12:20;;;;;;;1.50;1.40;;;;;;;;;;5071216;28;20453;-69
2022/06/06 00:14:47;;;;;;;2.30;1.53;;;;;;;;;;5070972;28;20851;-70
2022/06/06 00:17:14;;;;;;;1.47;1.33;;;;;;;;;;5071401;28;20442;-69
2022/06/06 00:19:42;;;;;;;2.10;1.70;;;;;;;;;;5071204;28;20469;-69
2022/06/06 00:22:09;;;;;;;2.97;1.60;;;;;;;;;;5071333;28;20442;-70
2022/06/06 00:24:36;;;;;;;2.67;1.63;;;;;;;;;;5071485;28;20446;-70
2022/06/06 00:27:05;;;;;;;1.50;1.27;;;;;;;;;;5070310;28;20449;-70
2022/06/06 00:29:35;;;;;;;2.80;1.80;;;;;;;;;;5070447;28;20446;-70
2022/06/06 00:34:50;;;;;;;1.53;1.37;;;;;;;;;;5070300;28;20416;-70
2022/06/06 00:37:19;;;;;;;2.23;2.03;;;;;;;;;;5071138;28;20448;-70
2022/06/06 00:39:47;;;;;;;1.90;1.47;;;;;;;;;;5068976;28;20931;-70
2022/06/06 00:42:15;;;;;;;2.30;1.73;;;;;;;;;;5070973;28;20799;-70
2022/06/06 00:44:43;;;;;;;2.60;1.67;;;;;;;;;;5071330;28;20455;-69
2022/06/06 00:47:15;;;;;;;2.40;1.83;;;;;;;;;;5070572;28;20446;-70
2022/06/06 00:49:45;;;;;;;1.70;1.37;;;;;;;;;;5068704;28;20441;-69
2022/06/06 00:52:14;;;;;;;1.70;1.40;;;;;;;;;;5070804;28;20939;-69
2022/06/06 00:54:42;;;;;;;2.40;1.90;;;;;;;;;;5071053;28;20454;-69
2022/06/06 00:57:13;;;;;;;2.00;1.30;;;;;;;;;;5070544;28;20451;-69
2022/06/06 00:59:40;;;;;;;1.50;1.20;;;;;;;;;;5070244;28;20438;-69
2022/06/06 01:02:10;;;;;;;2.13;1.83;;;;;;;;;;5069465;28;20446;-69
2022/06/06 01:04:38;;;;;;;1.97;1.77;;;;;;;;;;5070380;28;20442;-69
2022/06/06 01:07:05;;;;;;;2.90;1.77;;;;;;;;;;5070040;28;20449;-69
2022/06/06 01:09:32;;;;;;;2.20;2.00;;;;;;;;;;5070193;28;20925;-70
2022/06/06 01:12:02;;;;;;;1.70;1.60;;;;;;;;;;5069600;28;20482;-70
2022/06/06 01:14:32;;;;;;;1.60;1.50;;;;;;;;;;5070535;28;20442;-69
2022/06/06 01:17:02;;;;;;;2.10;1.90;;;;;;;;;;5069863;28;20925;-71
2022/06/06 01:19:54;;;;;;;2.53;1.40;;;;;;;;;;5070184;28;20496;-70
2022/06/06 01:22:41;;;;;;;2.67;1.67;;;;;;;;;;5054759;28;20454;-70
2022/06/06 01:25:26;;;;;;;2.73;2.00;;;;;;;;;;5071024;28;20448;-69
2022/06/06 01:27:56;;;;;;;3.17;2.03;;;;;;;;;;5069493;28;20438;-70
2022/06/06 01:30:25;;;;;;;2.60;1.70;;;;;;;;;;5069839;28;20482;-70
2022/06/06 01:32:54;;;;;;;1.60;1.50;;;;;;;;;;5069365;28;20509;-70
2022/06/06 01:35:26;;;;;;;2.30;1.57;;;;;;;;;;5070682;28;20445;-69
2022/06/06 01:37:53;;;;;;;5.80;1.80;;;;;;;;;;5069137;28;20452;-69
2022/06/06 01:40:20;;;;;;;1.70;1.50;;;;;;;;;;5069974;28;21076;-69
2022/06/06 01:42:50;;;;;;;1.80;1.30;;;;;;;;;;5069575;28;20442;-70
2022/06/06 01:45:19;;;;;;;3.37;1.40;;;;;;;;;;5070018;28;20522;-69
2022/06/06 01:47:51;;;;;;;6.90;2.60;;;;;;;;;;5069073;28;20448;-70
2022/06/06 01:50:19;;;;;;;2.13;1.93;;;;;;;;;;5070349;28;20461;-69
2022/06/06 01:52:53;;;;;;;2.27;1.87;;;;;;;;;;5071650;28;20452;-69
2022/06/06 01:55:21;;;;;;;2.97;1.67;;;;;;;;;;5074240;28;20456;-69
2022/06/06 01:57:49;;;;;;;2.63;1.70;;;;;;;;;;5072810;28;20456;-69
2022/06/06 02:00:17;;;;;;;3.00;2.10;;;;;;;;;;5065678;28;20445;-69
2022/06/06 02:02:44;;;;;;;2.70;1.90;;;;;;;;;;5072554;28;20445;-69
2022/06/06 02:05:12;;;;;;;1.80;1.60;;;;;;;;;;5073707;28;20441;-69
2022/06/06 02:07:40;;;;;;;3.50;1.93;;;;;;;;;;5073280;28;20462;-69
2022/06/06 02:10:09;;;;;;;3.90;2.10;;;;;;;;;;5072884;28;20928;-69
2022/06/06 02:12:37;;;;;;;3.90;2.07;;;;;;;;;;5068930;28;20457;-69
2022/06/06 02:15:04;;;;;;;3.10;2.03;;;;;;;;;;5073317;28;20456;-69
2022/06/06 02:17:32;;;;;;;2.10;1.53;;;;;;;;;;5073370;28;20460;-69
2022/06/06 02:19:59;;;;;;;3.10;2.00;;;;;;;;;;5072226;28;21024;-69
2022/06/06 02:22:27;;;;;;;2.73;2.07;;;;;;;;;;5073411;28;20437;-69
2022/06/06 02:24:55;;;;;;;3.70;2.17;;;;;;;;;;5073124;28;20441;-69
2022/06/06 02:27:22;;;;;;;2.43;1.77;;;;;;;;;;5073368;28;20457;-69
2022/06/06 02:29:49;;;;;;;2.23;1.90;;;;;;;;;;5072363;28;20451;-69
2022/06/06 02:32:16;;;;;;;2.13;1.73;;;;;;;;;;5072779;28;21074;-69
2022/06/06 02:34:43;;;;;;;2.73;1.70;;;;;;;;;;5072495;28;20453;-70
2022/06/06 02:37:10;;;;;;;2.47;1.93;;;;;;;;;;5073030;28;20444;-69
2022/06/06 02:39:39;;;;;;;1.97;1.87;;;;;;;;;;5072906;28;20503;-68
2022/06/06 02:42:06;;;;;;;2.10;1.90;;;;;;;;;;5072782;28;20453;-69
2022/06/06 02:44:33;;;;;;;2.40;2.10;;;;;;;;;;5073324;28;20446;-69
2022/06/06 02:47:01;;;;;;;2.57;2.17;;;;;;;;;;5071910;28;20905;-69
2022/06/06 02:49:29;;;;;;;3.37;2.63;;;;;;;;;;5072456;28;20862;-69
2022/06/06 02:51:56;;;;;;;2.17;1.93;;;;;;;;;;5072214;28;20560;-69
2022/06/06 02:54:24;;;;;;;2.60;2.20;;;;;;;;;;5073178;28;20787;-69
2022/06/06 02:56:52;;;;;;;2.30;1.83;;;;;;;;;;5072707;28;20447;-69
2022/06/06 02:59:21;;;;;;;2.47;2.27;;;;;;;;;;5073279;28;20434;-69
2022/06/06 03:01:48;;;;;;;3.03;2.07;;;;;;;;;;5081028;28;20448;-69
2022/06/06 03:04:15;;;;;;;3.20;1.63;;;;;;;;;;5072206;28;20430;-69
2022/06/06 03:06:51;;;;;;;2.40;2.00;;;;;;;;;;5073201;28;20445;-69
2022/06/06 03:09:26;;;;;;;1.70;1.60;;;;;;;;;;5072376;28;20445;-69
2022/06/06 03:12:01;;;;;;;2.77;2.43;;;;;;;;;;5071858;28;20523;-69
2022/06/06 03:14:52;;;;;;;2.23;1.70;;;;;;;;;;5072648;28;20525;-69
2022/06/06 03:23:07;;;;;;;3.17;2.40;;;;;;;;;;5070854;28;20423;-69
2022/06/06 03:25:37;;;;;;;2.60;2.20;;;;;;;;;;5072414;28;20435;-69
2022/06/06 03:28:12;;;;;;;1.97;1.60;;;;;;;;;;5071824;28;20442;-69
2022/06/06 03:30:45;;;;;;;3.83;2.30;;;;;;;;;;5063961;28;20476;-69
2022/06/06 03:33:16;;;;;;;3.67;2.50;;;;;;;;;;5067903;28;20441;-69
2022/06/06 03:35:47;;;;;;;2.90;2.27;;;;;;;;;;5071859;28;20442;-70
2022/06/06 03:38:17;;;;;;;2.63;2.30;;;;;;;;;;5071937;28;20468;-69
2022/06/06 03:40:49;;;;;;;2.37;1.90;;;;;;;;;;5071332;28;20833;-69
2022/06/06 03:43:24;;;;;;;3.50;2.20;;;;;;;;;;5070018;28;20434;-69
2022/06/06 03:45:54;;;;;;;2.63;2.13;;;;;;;;;;5071213;28;20444;-69
2022/06/06 03:48:27;;;;;;;2.90;2.60;;;;;;;;;;5071589;28;20535;-69
2022/06/06 03:51:03;;;;;;;3.17;2.67;;;;;;;;;;5071127;28;20477;-69
2022/06/06 03:53:35;;;;;;;2.30;2.10;;;;;;;;;;5068810;28;20494;-69
2022/06/06 03:56:07;;;;;;;3.40;2.10;;;;;;;;;;5071250;28;20737;-69
2022/06/06 03:58:36;;;;;;;2.57;2.10;;;;;;;;;;5065592;28;20438;-69
2022/06/06 04:01:05;;;;;;;2.53;1.90;;;;;;;;;;5070832;28;20766;-69
2022/06/06 04:03:33;;;;;;;3.00;2.40;;;;;;;;;;5072230;28;20580;-69
2022/06/06 04:06:02;;;;;;;3.37;2.13;;;;;;;;;;5071081;28;20776;-69
2022/06/06 04:08:31;;;;;;;3.33;2.30;;;;;;;;;;5070575;28;20507;-69
2022/06/06 04:11:03;;;;;;;2.30;2.10;;;;;;;;;;5073705;28;20489;-69
2022/06/06 04:13:36;;;;;;;2.93;2.13;;;;;;;;;;5073378;28;20462;-69
2022/06/06 04:16:11;;;;;;;2.20;2.00;;;;;;;;;;5072246;28;20451;-69
2022/06/06 04:18:45;;;;;;;2.23;2.00;;;;;;;;;;5071613;28;20440;-69
2022/06/06 04:21:19;;;;;;;2.97;2.23;;;;;;;;;;5061735;28;20465;-69
2022/06/06 04:23:56;;;;;;;2.77;2.30;;;;;;;;;;5070976;28;20620;-69
2022/06/06 04:26:29;;;;;;;1.77;1.50;;;;;;;;;;5071032;28;20452;-69
2022/06/06 04:29:03;;;;;;;2.20;1.93;;;;;;;;;;5070322;28;20539;-69
2022/06/06 04:31:36;;;;;;;2.57;2.03;;;;;;;;;;5070560;28;21035;-69
2022/06/06 04:34:08;;;;;;;4.57;2.40;;;;;;;;;;5070698;28;20444;-69
2022/06/06 04:36:38;;;;;;;2.60;2.20;;;;;;;;;;5071075;28;20434;-69
2022/06/06 04:39:08;;;;;;;2.27;2.07;;;;;;;;;;5070188;28;20457;-69
2022/06/06 04:41:39;;;;;;;2.40;2.00;;;;;;;;;;5070624;28;20469;-69
2022/06/06 04:44:11;;;;;;;3.23;1.97;;;;;;;;;;5070428;28;20450;-69
2022/06/06 04:46:43;;;;;;;6.97;6.23;;;;;;;;;;5071356;28;20468;-69
2022/06/06 04:49:11;;;;;;;4.47;3.80;;;;;;;;;;5070470;28;20910;-69
2022/06/06 04:51:40;;;;;;;3.13;2.73;;;;;;;;;;5070737;28;20481;-69
2022/06/06 04:54:10;;;;;;;2.17;1.87;;;;;;;;;;5069708;28;20448;-69
2022/06/06 04:56:37;;;;;;;5.83;2.60;;;;;;;;;;5071088;28;20528;-69
2022/06/06 04:59:04;;;;;;;2.33;2.00;;;;;;;;;;5065574;28;20450;-69
2022/06/06 05:01:31;;;;;;;3.87;2.17;;;;;;;;;;5070352;28;20453;-69
2022/06/06 05:04:00;;;;;;;2.50;2.30;;;;;;;;;;5069551;28;20567;-69
2022/06/06 05:06:46;;;;;;;2.77;2.07;;;;;;;;;;5070825;28;20444;-69
2022/06/06 05:09:20;;;;;;;2.63;2.33;;;;;;;;;;5070131;28;20539;-69
2022/06/06 05:11:54;;;;;;;2.70;2.07;;;;;;;;;;5066602;28;20475;-69
2022/06/06 05:14:39;;;;;;;2.37;2.07;;;;;;;;;;5058081;28;20622;-69
2022/06/06 05:17:13;;;;;;;4.03;1.87;;;;;;;;;;5066418;28;20454;-69
2022/06/06 05:19:53;;;;;;;2.53;1.90;;;;;;;;;;5070444;28;20441;-69
2022/06/06 05:22:29;;;;;;;2.60;2.17;;;;;;;;;;5070488;28;20792;-69
2022/06/06 05:25:10;;;;;;;3.80;2.20;;;;;;;;;;5070211;28;20441;-69
2022/06/06 05:27:46;;;;;;;2.37;2.07;;;;;;;;;;5073466;28;20436;-69
2022/06/06 05:30:17;;;;;;;2.83;2.27;;;;;;;;;;5074893;28;20692;-69
2022/06/06 05:32:54;;;;;;;2.80;2.10;;;;;;;;;;5073371;28;20475;-70
2022/06/06 05:35:29;;;;;;;2.40;1.90;;;;;;;;;;5074702;28;20436;-69
2022/06/06 05:38:02;;;;;;;2.00;1.70;;;;;;;;;;5073736;28;20429;-70
2022/06/06 05:40:35;;;;;;;2.00;1.80;;;;;;;;;;5074286;28;20971;-69
2022/06/06 05:43:07;;;;;;;2.13;1.93;;;;;;;;;;5073879;28;20920;-70
2022/06/06 05:45:38;;;;;;;3.40;2.00;;;;;;;;;;5074751;28;20434;-70
2022/06/06 05:48:10;;;;;;;2.20;1.90;;;;;;;;;;5073512;28;20816;-70
2022/06/06 05:50:45;;;;;;;2.63;2.20;;;;;;;;;;5074784;28;20515;-69
2022/06/06 05:53:21;;;;;;;1.93;1.73;;;;;;;;;;5073549;28;20504;-70
2022/06/06 05:55:57;;;;;;;3.47;2.17;;;;;;;;;;5073580;28;20971;-70
2022/06/06 05:58:32;;;;;;;2.10;1.90;;;;;;;;;;5072084;28;20453;-67
2022/06/06 06:01:04;;;;;;;2.53;2.23;;;;;;;;;;5069873;28;20440;-72
2022/06/06 06:03:56;;;;;;;4.87;4.00;;;;;;;;;;5073714;28;20437;-67
2022/06/06 06:06:30;;;;;;;3.93;3.53;;;18.20;99.90;;;;;;5062280;28;20446;-73
2022/06/06 06:09:19;;;;;;;2.10;1.90;;;17.70;99.90;;;;;;5080751;28;20453;-72
2022/06/06 06:12:04;;;;;;;3.80;1.87;;;17.80;99.90;;;;;;5066600;28;20540;-71
2022/06/06 06:14:42;;;;;;;2.17;1.97;;;17.90;99.90;;;;;;5040922;28;20500;-69
2022/06/06 06:17:11;;;;;;;2.40;2.20;;;18.20;99.90;;;;;;5070027;28;20437;-69
2022/06/06 06:19:44;;;;;;;2.77;2.13;;;18.20;99.90;;;;;;5073281;28;20446;-69
2022/06/06 06:22:14;;;;;;;2.57;1.80;;;18.10;99.90;;;;;;5074042;28;20452;-69
2022/06/06 06:24:43;;;;;;;2.40;2.20;;;18.30;99.90;;;;;;5074294;28;20437;-69
2022/06/06 06:27:13;;;;;;;2.57;2.37;;;18.50;99.90;;;;;;5073578;28;20929;-69
2022/06/06 06:29:40;;;;;;;2.00;1.80;;;18.50;99.90;;;;;;5073909;28;20495;-70
2022/06/06 06:32:28;;;;;;;2.80;2.30;;;18.60;99.90;;;;;;5059975;28;20485;-69
2022/06/06 06:35:12;;;;;;;1.77;1.53;;;18.60;99.90;;;;;;5070043;28;20444;-69
2022/06/06 06:38:18;;;;;;;3.10;2.67;;;18.70;99.90;;;;;;5072223;28;20438;-69
2022/06/06 06:40:53;;;;;;;2.00;1.90;;;18.80;99.90;;;;;;5069259;28;20987;-69
2022/06/06 06:43:33;;;;;;;3.20;2.37;;;18.90;49.00;;;;;;5073535;28;20457;-69
2022/06/06 06:46:03;;;;;;;2.70;2.50;;;19.00;1.00;;;;;;5072892;28;20495;-70
2022/06/06 06:48:33;;;;;;;4.77;2.53;;;18.90;88.40;;;;;;5073128;28;20437;-71
2022/06/06 06:51:05;;;;;;;2.43;1.80;;;19.00;86.50;;;;;;5072645;28;20461;-73
2022/06/06 06:53:46;;;;;;;3.20;1.73;;;18.90;42.00;;;;;;5073407;28;20828;-73
2022/06/06 06:56:27;;;;;;;4.47;2.30;;;19.00;1.00;;;;;;5073503;28;20448;-73
2022/06/06 06:58:56;;;;;;;2.40;2.03;;;19.10;1.00;;;;;;5072369;28;20454;-72
2022/06/06 07:08:32;;;;;;;2.47;2.27;;;19.20;1.00;;;;;;5060356;28;20485;-70
2022/06/06 07:10:26;;;;;;;2.57;1.97;;;19.50;99.90;;;;;;5073286;28;20839;-69
2022/06/06 07:13:14;;;;;;;2.50;2.30;;;19.40;99.90;;;;;;5071092;28;21059;-72
2022/06/06 07:15:46;;;;;;;3.13;2.00;;;19.60;90.80;;;;;;5073296;28;20441;-70
2022/06/06 07:18:16;;;;;;;2.90;2.70;;;19.70;1.00;;;;;;5062140;28;20922;-70
2022/06/06 07:20:46;;;;;;;2.13;1.93;;;19.80;1.00;;;;;;5072077;28;20442;-70
2022/06/06 07:23:14;;;;;;;4.07;3.00;;;20.10;98.10;;;;;;5072647;28;20442;-70
2022/06/06 07:25:46;;;;;;;2.10;1.67;;;20.00;99.90;;;;;;5072580;28;20445;-70
2022/06/06 07:28:15;;;;;;;2.60;2.40;;;20.10;96.30;;;;;;5071829;28;20517;-70
2022/06/06 07:30:50;;;;;;;2.20;2.00;;;20.00;67.20;;;;;;5067326;28;20471;-71
2022/06/06 07:33:42;;;;;;;2.33;2.13;;;20.30;99.90;;;;;;5066821;28;20472;-70
2022/06/06 07:36:18;;;;;;;6.23;2.50;;;20.50;75.60;;;;;;5069263;28;20986;-71
2022/06/06 07:39:12;;;;;;;2.33;1.83;;;20.70;1.00;;;;;;5069315;28;20458;-72
2022/06/06 07:41:59;;;;;;;2.93;1.87;;;20.50;99.90;;;;;;5068022;28;20983;-71
2022/06/06 07:44:43;;;;;;;2.13;1.90;;;20.70;1.00;;;;;;5069433;28;20548;-71
2022/06/06 07:47:23;;;;;;;2.10;1.90;;;20.40;99.90;;;;;;5069607;28;20454;-71
2022/06/06 07:49:55;;;;;;;2.90;2.20;;;20.40;1.00;;;;;;5068145;28;20497;-71
2022/06/06 07:52:39;;;;;;;3.60;2.03;;;20.50;99.90;;;;;;5068925;28;20503;-72
2022/06/06 07:55:11;;;;;;;2.37;2.10;;;20.60;99.90;;;;;;5068602;28;20977;-71
2022/06/06 07:57:47;;;;;;;3.77;2.30;;;20.70;99.90;;;;;;5069603;28;20437;-71
2022/06/06 08:00:18;;;;;;;2.00;1.77;;;20.70;99.90;;;;;;5068588;28;20959;-70
2022/06/06 08:03:14;;;;;;;2.60;1.90;;;20.70;99.90;;;;;;5068058;28;20456;-71
2022/06/06 08:06:11;;;;;;;6.40;2.17;;;20.80;99.90;;;;;;5069188;28;20446;-71
2022/06/06 08:09:01;;;;;;;2.20;1.50;;;20.80;99.90;;;;;;5069319;28;20437;-69
2022/06/06 08:11:40;;;;;;;2.33;2.13;;;20.80;1.00;;;;;;5069059;28;20453;-69
2022/06/06 08:14:17;;;;;;;4.27;2.30;;;20.60;99.90;;;;;;5068511;28;20839;-71
2022/06/06 08:16:48;;;;;;;2.30;1.50;;;20.60;99.90;;;;;;5067758;28;20461;-71
2022/06/06 08:19:36;;;;;;;2.37;2.17;;;20.70;1.00;;;;;;5068298;28;20446;-71
2022/06/06 08:22:04;;;;;;;2.17;1.73;;;20.90;99.90;;;;;;5068148;28;20690;-70
2022/06/06 08:24:38;;;;;;;2.73;2.37;;;21.00;1.00;;;;;;5066960;28;20833;-71
2022/06/06 08:27:07;;;;;;;2.70;1.50;;;21.20;1.00;;;;;;5068392;28;20446;-68
2022/06/06 08:29:38;;;;;;;2.00;1.70;;;21.00;99.90;;;;;;5068286;28;20449;-71
2022/06/06 08:32:06;;;;;;;2.33;1.83;;;21.20;99.90;;;;;;5067856;28;20460;-71
2022/06/06 08:34:34;;;;;;;2.60;2.10;;;21.20;99.90;;;;;;5068659;28;20530;-70
2022/06/06 08:37:31;;;;;;;2.57;2.37;;;21.10;99.90;;;;;;5068131;28;20495;-71
2022/06/06 08:40:13;;;;;;;2.03;1.83;;;21.10;99.90;;;;;;5066724;28;20477;-71
2022/06/06 08:42:50;;;;;;;3.67;2.30;;;21.40;1.00;;;;;;5068620;28;20537;-71
2022/06/06 08:45:48;;;;;;;3.23;2.23;;;21.60;1.00;;;;;;5067674;28;20449;-70
2022/06/06 08:48:33;;;;;;;4.50;1.60;;;21.80;99.90;;;;;;5068265;28;20820;-71
2022/06/06 08:51:03;;;;;;;2.03;1.70;;;21.70;99.90;;;;;;5067482;28;20921;-71
2022/06/06 08:54:13;;;;;;;1.73;1.50;;;21.80;99.90;;;;;;5068815;28;20933;-70
2022/06/06 08:56:56;;;;;;;1.40;1.30;;;21.90;99.90;;;;;;5057273;28;20454;-71
2022/06/06 09:00:13;;;;;;;1.77;1.67;;;21.90;99.90;;;;;;5069685;28;20442;-70
2022/06/06 09:03:19;;;;;;;1.67;1.43;;;22.20;99.90;;;;;;5068108;28;20981;-71
2022/06/06 09:06:13;;;;;;;1.90;1.60;;;22.20;99.90;;;;;;5067603;28;20445;-71
2022/06/06 09:09:11;;;;;;;2.80;1.50;;;22.30;99.90;;;;;;5068525;28;20548;-71
2022/06/06 09:12:19;;;;;;;1.20;1.10;;;22.50;99.90;;;;;;5068924;28;20477;-69
2022/06/06 09:15:19;;;;;;;1.70;1.60;;;22.70;99.90;;;;;;5059031;28;20468;-71
2022/06/06 09:18:15;;;;;;;1.73;1.60;;;22.50;99.90;;;;;;5067152;28;20765;-71
2022/06/06 09:21:11;;;;;;;1.43;1.20;;;22.50;99.90;;;;;;5067327;28;20452;-71
2022/06/06 09:24:28;;;;;;;3.17;1.43;;;22.40;99.90;;;;;;5066234;28;20460;-70
2022/06/06 09:27:04;;;;;;;1.90;1.43;;;;;;;;;;5065677;28;20445;-70
2022/06/06 09:29:50;;;;;;;1.60;1.40;;;;;;;;;;5068204;28;20445;-71
2022/06/06 09:32:31;;;;;;;1.53;1.43;;;;;;;;;;5068366;28;20457;-70
2022/06/06 09:35:26;;;;;;;1.20;1.00;;;;;;;;;;5064712;28;21260;-71
2022/06/06 09:38:06;;;;;;;1.63;1.40;;;;;;;;;;5067232;28;20932;-71
2022/06/06 09:40:36;;;;;;;1.63;1.53;;;;;;;;;;5067625;28;20481;-71
2022/06/06 09:43:15;;;;;;;1.80;1.30;;;;;;;;;;5067561;28;20888;-71
2022/06/06 09:45:57;;;;;;;1.50;1.40;;;;;;;;;;5068584;28;20441;-72
2022/06/06 09:48:42;;;;;;;1.50;1.40;;;;;;;;;;5066510;28;20521;-71
2022/06/06 09:51:18;;;;;;;1.83;1.63;;;;;;;;;;5067204;28;20988;-71
2022/06/06 10:00:02;;;;;;;2.03;1.37;;;;;;;;;;5055425;28;20738;-71
2022/06/06 10:02:47;;;;;;;1.33;1.23;;;;;;;;;;5065507;28;20452;-71
2022/06/06 10:05:33;;;;;;;1.43;1.33;;;;;;;;;;5067800;28;20438;-71
2022/06/06 10:08:15;;;;;;;1.33;1.07;;;;;;;;;;5059153;28;20442;-72
2022/06/06 10:10:52;;;;;;;1.60;1.30;;;;;;;;;;5071698;28;20929;-70
2022/06/06 10:13:32;;;;;;;2.30;1.33;;;;;;;;;;5069503;28;20554;-71
2022/06/06 10:16:13;;;;;;;1.50;1.40;;;;;;;;;;5078060;28;20447;-70
2022/06/06 10:19:08;;;;;;;1.40;1.20;;;;;;;;;;5074226;28;20521;-71
2022/06/06 10:21:50;;;;;;;1.27;1.17;;;;;;;;;;5037140;28;20959;-70
2022/06/06 10:24:24;;;;;;;1.40;1.30;;;;;;;;;;5069274;28;20475;-71
2022/06/06 10:26:57;;;;;;;1.80;1.70;;;;;;;;;;5072019;28;20457;-71
2022/06/06 10:32:42;;;;;;;2.53;2.03;;;;;;;;;;5060715;28;20436;-71
2022/06/06 10:35:15;;;;;;;3.33;1.10;;;;;;;;;;5073189;28;20453;-70
2022/06/06 10:37:56;;;;;;;1.83;1.63;;;;;;;;;;5070045;28;20531;-69
2022/06/06 10:40:32;;;;;;;1.47;1.33;;;;;;;;;;5072563;28;20481;-69
2022/06/06 10:43:06;;;;;;;2.27;1.50;;;;;;;;;;5058984;28;20459;-69
2022/06/06 10:45:37;;;;;;;1.63;1.53;;;;;;;;;;5072888;28;20996;-69
2022/06/06 10:48:19;;;;;;;2.33;1.47;;;;;;;;;;5072369;28;20453;-70
2022/06/06 10:53:56;;;;;;;1.63;1.37;;;;;;;;;;5072449;28;20469;-70
2022/06/06 10:56:34;;;;;;;1.27;1.17;;;;;;;;;;5072971;28;20441;-69
2022/06/06 10:59:22;;;;;;;1.50;1.30;;;;;;;;;;5072329;28;20838;-70
2022/06/06 11:02:04;;;;;;;1.50;1.40;;;;;;;;;;5072589;28;20452;-70
2022/06/06 11:05:01;;;;;;;1.27;1.17;;;;;;;;;;5073053;28;20499;-69
2022/06/06 11:07:49;;;;;;;1.53;1.33;;;;;;;;;;5030613;28;20831;-69
2022/06/06 11:10:26;;;;;;;1.43;1.13;;;;;;;;;;5068318;28;20462;-69
2022/06/06 11:13:06;;;;;;;1.00;0.90;;;;;;;;;;5072272;28;20877;-69
2022/06/06 11:15:36;;;;;;;1.50;1.40;;;;;;;;;;5072713;28;20446;-69
2022/06/06 11:18:21;;;;;;;1.10;1.00;;;;;;;;;;5072304;28;20835;-69
2022/06/06 11:21:09;;;;;;;1.37;1.27;;;;;;;;;;5071513;28;20988;-69
2022/06/06 11:23:42;;;;;;;1.43;1.33;;;;;;;;;;5072287;28;20442;-69
2022/06/06 11:26:21;;;;;;;2.03;1.40;;;;;;;;;;5073000;28;20452;-69
2022/06/06 11:29:03;;;;;;;1.27;1.07;;;;;;;;;;5071970;28;20442;-69
2022/06/06 11:31:49;;;;;;;1.60;1.50;;;;;;;;;;5070057;28;20940;-69
2022/06/06 11:34:40;;;;;;;1.17;1.07;;;;;;;;;;5072031;28;20481;-69
2022/06/06 11:37:25;;;;;;;1.30;1.20;;;;;;;;;;5071615;28;20437;-70
2022/06/06 11:40:02;;;;;;;1.50;1.40;;;;;;;;;;5070466;28;20549;-71
2022/06/06 11:42:41;;;;;;;1.73;1.60;;;;;;;;;;5072506;28;20449;-70
2022/06/06 11:45:17;;;;;;;1.37;1.27;;;;;;;;;;5072441;28;20438;-69
2022/06/06 11:47:52;;;;;;;2.23;1.70;;;;;;;;;;5071688;28;20449;-71
2022/06/06 11:50:35;;;;;;;3.03;1.50;;;;;;;;;;5072096;28;20843;-70
2022/06/06 11:53:26;;;;;;;1.90;1.43;;;;;;;;;;5071603;28;20444;-71
2022/06/06 11:56:03;;;;;;;1.40;1.27;;;;;;;;;;5071093;28;20450;-70
2022/06/06 11:58:58;;;;;;;1.70;1.30;;;;;;;;;;5072216;28;20796;-71
2022/06/06 12:01:36;;;;;;;1.20;1.10;;;;;;;;;;5072211;28;20456;-71
2022/06/06 12:04:11;;;;;;;1.40;1.10;;;;;;;;;;5071223;28;20688;-70
2022/06/06 12:06:54;;;;;;;1.90;1.30;;;;;;;;;;5071934;28;20456;-71
2022/06/06 12:09:27;;;;;;;1.40;1.20;;;;;;;;;;5071230;28;20480;-70
2022/06/06 12:12:23;;;;;;;1.93;1.50;;;;;;;;;;5071238;28;20799;-70
2022/06/06 12:15:05;;;;;;;1.40;1.10;;;;;;;;;;5071158;28;20561;-70
2022/06/06 12:17:39;;;;;;;1.63;1.17;;;;;;;;;;5057816;28;20854;-70
2022/06/06 12:20:24;;;;;;;1.77;1.47;;;;;;;;;;5070383;28;20441;-70
2022/06/06 12:23:02;;;;;;;1.37;1.23;;;;;;;;;;5070618;28;20451;-70
2022/06/06 12:25:56;;;;;;;1.37;0.97;;;;;;;;;;5071339;28;21037;-70
2022/06/06 12:28:34;;;;;;;1.10;1.00;;;;;;;;;;5071407;28;20440;-70
2022/06/06 12:31:11;;;;;;;2.10;1.33;;;;;;;;;;5070461;28;20516;-71
2022/06/06 12:33:42;;;;;;;1.87;1.30;;;;;;;;;;5070862;28;20480;-70
2022/06/06 12:36:14;;;;;;;2.10;0.80;;;;;;;;;;5060348;28;20457;-71
2022/06/06 12:38:47;;;;;;;1.53;1.43;;;;;;;;;;5071327;28;20836;-71
2022/06/06 12:41:37;;;;;;;1.60;1.03;;;;;;;;;;5071058;28;20469;-74
2022/06/06 12:44:11;;;;;;;1.90;1.37;;;;;;;;;;5065840;28;20731;-73
2022/06/06 12:46:55;;;;;;;1.40;1.30;;;;;;;;;;5070403;28;20449;-73
2022/06/06 12:49:29;;;;;;;1.77;1.53;;;;;;;;;;5070468;28;20438;-73
2022/06/06 12:52:04;;;;;;;1.23;1.13;;;;;;;;;;5070161;28;20446;-73
2022/06/06 12:57:20;;;;;;;1.17;1.07;;;;;;;;;;5065034;28;20445;-72
2022/06/06 12:59:56;;;;;;;1.27;1.17;;;;;;;;;;5056264;28;21018;-72
2022/06/06 13:02:49;;;;;;;1.93;1.00;;;;;;;;;;5065683;28;20441;-72
2022/06/06 13:05:21;;;;;;;4.00;2.97;;;;;;;;;;5060554;28;21025;-72
2022/06/06 13:07:55;;;;;;;2.50;1.10;;;;;;;;;;5067871;28;20460;-72
2022/06/06 13:10:30;;;;;;;1.37;1.27;;;;;;;;;;5070813;28;20449;-72
2022/06/06 13:13:15;;;;;;;1.40;1.03;;;;;;;;;;5069091;28;20448;-72
2022/06/06 13:15:48;;;;;;;0.93;0.83;;;;;;;;;;5069699;28;20452;-72
2022/06/06 13:18:24;;;;;;;1.67;1.20;;;;;;;;;;5070420;28;20452;-73
2022/06/06 13:20:54;;;;;;;1.30;1.07;;;;;;;;;;5069508;28;20482;-72
2022/06/06 13:23:38;;;;;;;1.00;0.90;;;;;;;;;;5069931;28;20921;-72
2022/06/06 13:26:26;;;;;;;1.47;1.37;;;;;;;;;;5069899;28;20503;-72
2022/06/06 13:28:54;;;;;;;1.70;1.27;;;;;;;;;;5069535;28;20464;-71
2022/06/06 13:31:29;;;;;;;4.03;2.00;;;;;;;;;;5068922;28;20452;-73
2022/06/06 13:34:11;;;;;;;2.23;1.80;;;;;;;;;;5069441;28;20837;-71
2022/06/06 13:36:45;;;;;;;1.80;1.40;;;;;;;;;;5065746;28;20960;-71
2022/06/06 13:39:18;;;;;;;2.20;1.40;;;;;;;;;;5070008;28;20791;-71
2022/06/06 13:41:49;;;;;;;2.30;1.63;;;;;;;;;;5069659;28;20832;-71
2022/06/06 13:44:30;;;;;;;1.67;1.57;;;;;;;;;;5062906;28;20941;-71
2022/06/06 13:47:03;;;;;;;1.93;1.30;;;;;;;;;;5070393;28;20516;-72
2022/06/06 13:49:52;;;;;;;2.43;1.87;;;;;;;;;;5074046;28;20871;-71
2022/06/06 13:52:36;;;;;;;2.23;2.00;;;;;;;;;;5074217;28;20452;-72
2022/06/06 13:55:18;;;;;;;1.30;1.20;;;;;;;;;;5073611;28;20998;-72
2022/06/06 13:57:50;;;;;;;2.30;1.93;;;;;;;;;;5073010;28;20446;-71
2022/06/06 14:00:19;;;;;;;2.07;1.97;;;;;;;;;;5074970;28;20434;-72
2022/06/06 14:03:12;;;;;;;1.90;1.70;;;;;;;;;;5073982;28;20812;-71
2022/06/06 14:05:53;;;;;;;2.33;1.93;;;;;;;;;;5073622;28;20456;-73
2022/06/06 14:08:20;;;;;;;5.90;2.60;;;;;;;;;;5074230;28;20515;-74
2022/06/06 14:11:02;;;;;;;1.70;1.60;;;;;;;;;;5073595;28;20510;-73
2022/06/06 14:13:32;;;;;;;1.93;1.50;;;;;;;;;;5067460;28;20809;-73
2022/06/06 14:16:00;;;;;;;2.03;1.40;;;;;;;;;;5073120;28;20793;-71
2022/06/06 14:18:29;;;;;;;1.50;1.40;;;;;;;;;;5073579;28;20472;-71
2022/06/06 14:20:57;;;;;;;4.30;2.20;;;;;;;;;;5073255;28;20441;-70
2022/06/06 14:23:26;;;;;;;1.60;1.37;;;;;;;;;;5073394;28;20452;-71
2022/06/06 14:25:54;;;;;;;2.47;1.70;;;;;;;;;;5072826;28;20496;-71
2022/06/06 14:28:22;;;;;;;1.50;1.40;;;;;;;;;;5073387;28;20452;-71
2022/06/06 14:30:50;;;;;;;11.43;6.67;;;;;;;;;;5072732;28;20452;-72
2022/06/06 14:33:23;;;;;;;2.77;2.50;;;;;;;;;;5073415;28;20460;-71
2022/06/06 14:35:52;;;;;;;3.10;1.40;;;;;;;;;;5072559;28;20476;-72
2022/06/06 14:38:21;;;;;;;1.77;1.20;;;;;;;;;;5073061;28;20446;-71
2022/06/06 14:40:50;;;;;;;1.40;1.30;;;;;;;;;;5072672;28;20535;-71
2022/06/06 14:43:17;;;;;;;1.27;1.17;;;;;;;;;;5073409;28;20442;-71
2022/06/06 14:45:46;;;;;;;1.63;1.50;;;;;;;;;;5072430;28;20457;-72
2022/06/06 14:48:14;;;;;;;2.57;1.60;;;;;;;;;;5073041;28;20529;-71
2022/06/06 14:50:54;;;;;;;1.80;1.70;;;;;;;;;;5073482;28;20524;-71
2022/06/06 14:53:24;;;;;;;1.23;1.13;;;;;;;;;;5073081;28;20434;-71
2022/06/06 14:55:53;;;;;;;2.10;1.47;;;;;;;;;;5072087;28;20492;-71
2022/06/06 14:58:22;;;;;;;1.50;1.40;;;;;;;;;;5072400;28;20464;-71
2022/06/06 15:00:50;;;;;;;1.30;1.20;;;;;;;;;;5070732;28;20800;-71
2022/06/06 15:03:18;;;;;;;1.97;1.77;;;;;;;;;;5071940;28;20449;-72
2022/06/06 15:05:45;;;;;;;2.65;1.20;;;;;;;;;;5070051;28;20203;-71
2022/06/06 15:08:18;;;;;;;2.05;1.55;;;;;;;;;;5082966;28;20298;-72
2022/06/06 15:10:51;;;;;;;1.75;1.45;;;22.20;99.90;;;;;;5072007;28;20199;-71
2022/06/06 15:13:21;;;;;;;2.15;1.35;;;30.80;9.10;;;;;;5064451;28;20198;-72
2022/06/06 15:15:49;;;;;;;4.80;4.30;;;;;;;;;;5071184;28;20302;-71
2022/06/06 15:18:19;;;;;;;13.48;11.63;;;;;;;;;;5072208;28;20199;-74
2022/06/06 15:20:52;;;;;;;1.45;1.35;;;;;;;;;;5074540;28;20188;-71
2022/06/06 15:23:23;;;;;;;1.40;1.30;;;;;;;;;;5072240;28;20227;-71
2022/06/06 15:25:52;;;;;;;1.38;1.27;;;;;;;;;;5071414;28;20561;-71
2022/06/06 15:28:26;;;;;;;2.28;1.58;;;;;;;;;;5072206;28;20222;-71
2022/06/06 15:30:56;;;;;;;1.60;1.50;;;;;;;;;;5071506;28;20203;-71
2022/06/06 15:33:25;;;;;;;1.47;1.23;;;;;;;;;;5071559;28;20290;-71